Arkport, New York
Current Conditions -  °F | °C
As of 7:54 AM on Sunday 21 Dec 2014 (Local Time) from KDSV Reporting Station
Overcast Overcast  
Wind Chill: 29°   Ceiling: 2800
Heat Index: 29°   Visibility: 10mi
Dew Point: 22°   Wind: 0mph
Humidity: 75%   Direction: NA
Pressure: 30.3"   Gusts: NA
Location:  42.39°N, 77.7°W
Report Text: KDSV 211254Z AUTO 00000KT 10SM OVC028 M02/M06 A3030 RMK AO2 SLP279 T10171056
Loading
Personal Weather Stations






























Interactive Weather Map New forecast layout! Learn more

10-Day Weather Forecast

Advertisements
Track Severe Weather on mobile